sensor_id;sensor_type;location;lat;lon;timestamp;temperature;humidity
80236;DHT22;69543;42.138;24.742;2023-05-21T00:01:00;24.00;41.90
80236;DHT22;69543;42.138;24.742;2023-05-21T00:03:26;24.00;42.00
80236;DHT22;69543;42.138;24.742;2023-05-21T00:05:54;24.00;41.90
80236;DHT22;69543;42.138;24.742;2023-05-21T00:08:20;24.00;41.90
80236;DHT22;69543;42.138;24.742;2023-05-21T00:10:46;24.00;42.00
80236;DHT22;69543;42.138;24.742;2023-05-21T00:13:11;24.00;42.00
80236;DHT22;69543;42.138;24.742;2023-05-21T00:15:38;24.00;42.00
80236;DHT22;69543;42.138;24.742;2023-05-21T00:18:04;24.00;42.00
80236;DHT22;69543;42.138;24.742;2023-05-21T00:20:30;24.00;41.90
80236;DHT22;69543;42.138;24.742;2023-05-21T00:22:59;24.00;42.00
80236;DHT22;69543;42.138;24.742;2023-05-21T00:25:28;24.00;42.10
80236;DHT22;69543;42.138;24.742;2023-05-21T00:27:54;24.00;42.00
80236;DHT22;69543;42.138;24.742;2023-05-21T00:30:20;24.00;42.10
80236;DHT22;69543;42.138;24.742;2023-05-21T00:32:46;24.00;42.00
80236;DHT22;69543;42.138;24.742;2023-05-21T00:35:12;24.00;42.00
80236;DHT22;69543;42.138;24.742;2023-05-21T00:37:37;24.00;42.00
80236;DHT22;69543;42.138;24.742;2023-05-21T00:40:04;24.00;42.00
80236;DHT22;69543;42.138;24.742;2023-05-21T00:42:32;24.00;42.00
80236;DHT22;69543;42.138;24.742;2023-05-21T00:44:58;24.00;42.00
80236;DHT22;69543;42.138;24.742;2023-05-21T00:47:24;24.00;42.00
80236;DHT22;69543;42.138;24.742;2023-05-21T00:49:51;24.00;42.00
80236;DHT22;69543;42.138;24.742;2023-05-21T00:52:17;24.00;42.00
80236;DHT22;69543;42.138;24.742;2023-05-21T00:54:46;24.00;42.00
80236;DHT22;69543;42.138;24.742;2023-05-21T00:57:13;24.00;42.00
80236;DHT22;69543;42.138;24.742;2023-05-21T00:59:39;24.00;42.00
80236;DHT22;69543;42.138;24.742;2023-05-21T01:02:05;24.00;42.00
80236;DHT22;69543;42.138;24.742;2023-05-21T01:04:31;24.00;42.00
80236;DHT22;69543;42.138;24.742;2023-05-21T01:06:57;24.00;42.00
80236;DHT22;69543;42.138;24.742;2023-05-21T01:09:25;24.00;42.00
80236;DHT22;69543;42.138;24.742;2023-05-21T01:11:51;24.00;42.00
80236;DHT22;69543;42.138;24.742;2023-05-21T01:14:17;24.00;42.00
80236;DHT22;69543;42.138;24.742;2023-05-21T01:16:46;24.00;42.00
80236;DHT22;69543;42.138;24.742;2023-05-21T01:19:19;24.00;42.00
80236;DHT22;69543;42.138;24.742;2023-05-21T01:22:00;24.00;42.00
80236;DHT22;69543;42.138;24.742;2023-05-21T01:24:28;24.00;42.00
80236;DHT22;69543;42.138;24.742;2023-05-21T01:26:54;24.00;42.00
80236;DHT22;69543;42.138;24.742;2023-05-21T01:29:20;24.00;42.00
80236;DHT22;69543;42.138;24.742;2023-05-21T01:31:55;24.00;42.00
80236;DHT22;69543;42.138;24.742;2023-05-21T01:34:33;24.00;42.00
80236;DHT22;69543;42.138;24.742;2023-05-21T01:39:43;24.00;42.10
80236;DHT22;69543;42.138;24.742;2023-05-21T01:42:09;24.00;42.00
80236;DHT22;69543;42.138;24.742;2023-05-21T01:44:36;24.00;42.00
80236;DHT22;69543;42.138;24.742;2023-05-21T01:47:02;24.00;42.00
80236;DHT22;69543;42.138;24.742;2023-05-21T01:49:29;24.00;42.00
80236;DHT22;69543;42.138;24.742;2023-05-21T01:51:55;24.00;42.10
80236;DHT22;69543;42.138;24.742;2023-05-21T01:54:21;24.00;42.00
80236;DHT22;69543;42.138;24.742;2023-05-21T01:56:48;24.00;42.00
80236;DHT22;69543;42.138;24.742;2023-05-21T01:59:15;24.00;42.00
80236;DHT22;69543;42.138;24.742;2023-05-21T02:01:47;24.00;42.00
80236;DHT22;69543;42.138;24.742;2023-05-21T02:04:54;24.00;42.10
80236;DHT22;69543;42.138;24.742;2023-05-21T02:07:40;24.00;42.00
80236;DHT22;69543;42.138;24.742;2023-05-21T02:10:08;24.00;42.10
80236;DHT22;69543;42.138;24.742;2023-05-21T02:12:34;24.00;42.00
80236;DHT22;69543;42.138;24.742;2023-05-21T02:15:00;24.00;42.10
80236;DHT22;69543;42.138;24.742;2023-05-21T02:17:26;24.00;42.10
80236;DHT22;69543;42.138;24.742;2023-05-21T02:19:55;24.00;42.00
80236;DHT22;69543;42.138;24.742;2023-05-21T02:22:21;24.00;42.00
80236;DHT22;69543;42.138;24.742;2023-05-21T02:24:47;24.00;42.00
80236;DHT22;69543;42.138;24.742;2023-05-21T02:27:13;24.00;42.00
80236;DHT22;69543;42.138;24.742;2023-05-21T02:29:42;24.00;42.00
80236;DHT22;69543;42.138;24.742;2023-05-21T02:32:07;24.00;42.00
80236;DHT22;69543;42.138;24.742;2023-05-21T02:34:33;24.00;42.00
80236;DHT22;69543;42.138;24.742;2023-05-21T02:37:01;24.00;42.00
80236;DHT22;69543;42.138;24.742;2023-05-21T02:39:27;24.00;42.00
80236;DHT22;69543;42.138;24.742;2023-05-21T02:41:52;24.00;42.00
80236;DHT22;69543;42.138;24.742;2023-05-21T02:44:18;24.00;42.00
80236;DHT22;69543;42.138;24.742;2023-05-21T02:46:45;24.00;42.00
80236;DHT22;69543;42.138;24.742;2023-05-21T02:49:10;24.00;42.00
80236;DHT22;69543;42.138;24.742;2023-05-21T02:51:36;24.00;42.00
80236;DHT22;69543;42.138;24.742;2023-05-21T02:54:02;24.00;42.00
80236;DHT22;69543;42.138;24.742;2023-05-21T02:56:28;24.00;42.00
80236;DHT22;69543;42.138;24.742;2023-05-21T02:58:54;24.00;42.00
80236;DHT22;69543;42.138;24.742;2023-05-21T03:01:19;24.00;42.00
80236;DHT22;69543;42.138;24.742;2023-05-21T03:03:45;24.00;42.00
80236;DHT22;69543;42.138;24.742;2023-05-21T03:06:10;24.00;42.00
80236;DHT22;69543;42.138;24.742;2023-05-21T03:08:36;24.00;42.00
80236;DHT22;69543;42.138;24.742;2023-05-21T03:11:02;24.00;42.00
80236;DHT22;69543;42.138;24.742;2023-05-21T03:13:27;24.00;42.00
80236;DHT22;69543;42.138;24.742;2023-05-21T03:15:53;24.00;42.00
80236;DHT22;69543;42.138;24.742;2023-05-21T03:18:21;24.00;42.00
80236;DHT22;69543;42.138;24.742;2023-05-21T03:20:47;24.00;42.00
80236;DHT22;69543;42.138;24.742;2023-05-21T03:23:13;24.00;42.00
80236;DHT22;69543;42.138;24.742;2023-05-21T03:25:39;24.00;42.00
80236;DHT22;69543;42.138;24.742;2023-05-21T03:28:04;24.00;42.00
80236;DHT22;69543;42.138;24.742;2023-05-21T03:30:31;24.00;42.00
80236;DHT22;69543;42.138;24.742;2023-05-21T03:32:57;24.00;42.00
80236;DHT22;69543;42.138;24.742;2023-05-21T03:35:24;24.00;42.00
80236;DHT22;69543;42.138;24.742;2023-05-21T03:37:50;24.00;42.00
80236;DHT22;69543;42.138;24.742;2023-05-21T03:40:15;24.00;42.00
80236;DHT22;69543;42.138;24.742;2023-05-21T03:42:41;24.00;42.00
80236;DHT22;69543;42.138;24.742;2023-05-21T03:45:08;24.00;42.10
80236;DHT22;69543;42.138;24.742;2023-05-21T03:47:33;24.00;42.00
80236;DHT22;69543;42.138;24.742;2023-05-21T03:50:01;24.00;42.00
80236;DHT22;69543;42.138;24.742;2023-05-21T03:52:27;24.00;42.00
80236;DHT22;69543;42.138;24.742;2023-05-21T03:54:53;24.00;42.00
80236;DHT22;69543;42.138;24.742;2023-05-21T03:57:18;23.90;43.10
80236;DHT22;69543;42.138;24.742;2023-05-21T03:59:44;24.00;42.00
80236;DHT22;69543;42.138;24.742;2023-05-21T04:02:09;24.00;42.00
80236;DHT22;69543;42.138;24.742;2023-05-21T04:04:35;24.00;42.00
80236;DHT22;69543;42.138;24.742;2023-05-21T04:07:01;24.00;42.00
80236;DHT22;69543;42.138;24.742;2023-05-21T04:09:29;24.00;42.00
80236;DHT22;69543;42.138;24.742;2023-05-21T04:11:54;24.00;42.20
80236;DHT22;69543;42.138;24.742;2023-05-21T04:14:21;24.00;42.00
80236;DHT22;69543;42.138;24.742;2023-05-21T04:16:47;24.00;42.00
80236;DHT22;69543;42.138;24.742;2023-05-21T04:19:13;24.00;42.00
80236;DHT22;69543;42.138;24.742;2023-05-21T04:21:39;24.00;42.00
80236;DHT22;69543;42.138;24.742;2023-05-21T04:24:05;24.00;42.00
80236;DHT22;69543;42.138;24.742;2023-05-21T04:26:31;24.00;42.00
80236;DHT22;69543;42.138;24.742;2023-05-21T04:28:58;24.00;42.00
80236;DHT22;69543;42.138;24.742;2023-05-21T04:31:28;24.00;42.00
80236;DHT22;69543;42.138;24.742;2023-05-21T04:33:53;24.00;42.00
80236;DHT22;69543;42.138;24.742;2023-05-21T04:36:19;24.00;42.00
80236;DHT22;69543;42.138;24.742;2023-05-21T04:38:44;24.00;42.00
80236;DHT22;69543;42.138;24.742;2023-05-21T04:41:10;24.00;42.00
80236;DHT22;69543;42.138;24.742;2023-05-21T04:43:38;24.00;42.00
80236;DHT22;69543;42.138;24.742;2023-05-21T04:46:08;24.00;42.00
80236;DHT22;69543;42.138;24.742;2023-05-21T04:48:33;23.90;41.90
80236;DHT22;69543;42.138;24.742;2023-05-21T04:50:59;23.90;42.00
80236;DHT22;69543;42.138;24.742;2023-05-21T04:53:25;23.90;42.00
80236;DHT22;69543;42.138;24.742;2023-05-21T04:55:50;23.90;42.00
80236;DHT22;69543;42.138;24.742;2023-05-21T04:58:16;23.90;42.00
80236;DHT22;69543;42.138;24.742;2023-05-21T05:00:43;24.00;42.10
80236;DHT22;69543;42.138;24.742;2023-05-21T05:03:11;24.00;42.00
80236;DHT22;69543;42.138;24.742;2023-05-21T05:05:38;23.90;43.10
80236;DHT22;69543;42.138;24.742;2023-05-21T05:08:03;24.00;42.00
80236;DHT22;69543;42.138;24.742;2023-05-21T05:10:29;23.90;42.00
80236;DHT22;69543;42.138;24.742;2023-05-21T05:12:55;24.00;42.00
80236;DHT22;69543;42.138;24.742;2023-05-21T05:15:20;24.00;42.00
80236;DHT22;69543;42.138;24.742;2023-05-21T05:17:46;23.90;42.00
80236;DHT22;69543;42.138;24.742;2023-05-21T05:20:15;23.90;42.00
80236;DHT22;69543;42.138;24.742;2023-05-21T05:22:40;24.00;42.00
80236;DHT22;69543;42.138;24.742;2023-05-21T05:25:06;24.00;42.00
80236;DHT22;69543;42.138;24.742;2023-05-21T05:27:32;24.00;42.00
80236;DHT22;69543;42.138;24.742;2023-05-21T05:29:58;23.90;42.00
80236;DHT22;69543;42.138;24.742;2023-05-21T05:32:23;24.00;42.00
80236;DHT22;69543;42.138;24.742;2023-05-21T05:34:49;24.00;42.00
80236;DHT22;69543;42.138;24.742;2023-05-21T05:37:15;24.00;42.10
80236;DHT22;69543;42.138;24.742;2023-05-21T05:39:41;24.00;42.10
80236;DHT22;69543;42.138;24.742;2023-05-21T05:42:07;24.00;42.00
80236;DHT22;69543;42.138;24.742;2023-05-21T05:44:33;24.00;42.00
80236;DHT22;69543;42.138;24.742;2023-05-21T05:46:58;24.00;42.00
80236;DHT22;69543;42.138;24.742;2023-05-21T05:49:24;24.00;43.20
80236;DHT22;69543;42.138;24.742;2023-05-21T05:51:50;24.00;43.10
80236;DHT22;69543;42.138;24.742;2023-05-21T05:54:15;24.00;42.00
80236;DHT22;69543;42.138;24.742;2023-05-21T06:00:53;24.00;42.10
80236;DHT22;69543;42.138;24.742;2023-05-21T06:03:18;24.00;42.10
80236;DHT22;69543;42.138;24.742;2023-05-21T06:05:44;23.90;42.00
80236;DHT22;69543;42.138;24.742;2023-05-21T06:08:10;23.90;42.00
80236;DHT22;69543;42.138;24.742;2023-05-21T06:10:35;24.00;42.00
80236;DHT22;69543;42.138;24.742;2023-05-21T06:13:01;24.00;42.00
80236;DHT22;69543;42.138;24.742;2023-05-21T06:15:27;24.00;42.00
80236;DHT22;69543;42.138;24.742;2023-05-21T06:17:52;24.00;42.10
80236;DHT22;69543;42.138;24.742;2023-05-21T06:20:18;24.00;42.00
80236;DHT22;69543;42.138;24.742;2023-05-21T06:22:44;24.00;42.10
80236;DHT22;69543;42.138;24.742;2023-05-21T06:25:09;24.00;42.00
80236;DHT22;69543;42.138;24.742;2023-05-21T06:27:36;24.00;42.00
80236;DHT22;69543;42.138;24.742;2023-05-21T06:30:02;24.00;42.00
80236;DHT22;69543;42.138;24.742;2023-05-21T06:32:29;24.00;42.00
80236;DHT22;69543;42.138;24.742;2023-05-21T06:34:54;24.00;42.10
80236;DHT22;69543;42.138;24.742;2023-05-21T06:37:20;24.00;42.10
80236;DHT22;69543;42.138;24.742;2023-05-21T06:39:46;24.00;42.00
80236;DHT22;69543;42.138;24.742;2023-05-21T06:42:12;24.00;42.00
80236;DHT22;69543;42.138;24.742;2023-05-21T06:44:37;24.00;42.10
80236;DHT22;69543;42.138;24.742;2023-05-21T06:47:03;24.00;42.00
80236;DHT22;69543;42.138;24.742;2023-05-21T06:49:29;24.00;42.00
80236;DHT22;69543;42.138;24.742;2023-05-21T06:51:54;24.00;42.00
80236;DHT22;69543;42.138;24.742;2023-05-21T06:54:20;24.00;42.00
80236;DHT22;69543;42.138;24.742;2023-05-21T06:56:45;24.00;42.00
80236;DHT22;69543;42.138;24.742;2023-05-21T06:59:11;24.00;42.10
80236;DHT22;69543;42.138;24.742;2023-05-21T07:01:37;24.00;42.00
80236;DHT22;69543;42.138;24.742;2023-05-21T07:04:07;24.00;42.00
80236;DHT22;69543;42.138;24.742;2023-05-21T07:06:32;24.00;42.00
80236;DHT22;69543;42.138;24.742;2023-05-21T07:08:59;24.00;42.10
80236;DHT22;69543;42.138;24.742;2023-05-21T07:11:24;24.00;42.00
80236;DHT22;69543;42.138;24.742;2023-05-21T07:13:53;24.00;42.00
80236;DHT22;69543;42.138;24.742;2023-05-21T07:16:20;24.00;42.00
80236;DHT22;69543;42.138;24.742;2023-05-21T07:18:45;24.00;42.00
80236;DHT22;69543;42.138;24.742;2023-05-21T07:21:11;24.00;42.00
80236;DHT22;69543;42.138;24.742;2023-05-21T07:23:37;24.00;42.00
80236;DHT22;69543;42.138;24.742;2023-05-21T07:26:02;24.00;42.00
80236;DHT22;69543;42.138;24.742;2023-05-21T07:28:28;24.00;42.00
80236;DHT22;69543;42.138;24.742;2023-05-21T07:30:53;24.00;42.10
80236;DHT22;69543;42.138;24.742;2023-05-21T07:33:19;24.00;42.00
80236;DHT22;69543;42.138;24.742;2023-05-21T07:35:47;24.00;42.00
80236;DHT22;69543;42.138;24.742;2023-05-21T07:38:12;24.00;42.00
80236;DHT22;69543;42.138;24.742;2023-05-21T07:40:38;24.00;42.10
80236;DHT22;69543;42.138;24.742;2023-05-21T07:43:04;24.00;42.10
80236;DHT22;69543;42.138;24.742;2023-05-21T07:45:29;24.00;42.10
80236;DHT22;69543;42.138;24.742;2023-05-21T07:47:55;24.00;42.00
80236;DHT22;69543;42.138;24.742;2023-05-21T07:50:21;24.00;42.00
80236;DHT22;69543;42.138;24.742;2023-05-21T07:52:47;24.00;42.00
80236;DHT22;69543;42.138;24.742;2023-05-21T07:55:12;24.00;42.00
80236;DHT22;69543;42.138;24.742;2023-05-21T07:57:38;24.00;42.00
80236;DHT22;69543;42.138;24.742;2023-05-21T08:00:04;24.00;42.10
80236;DHT22;69543;42.138;24.742;2023-05-21T08:02:33;24.00;42.00
80236;DHT22;69543;42.138;24.742;2023-05-21T08:04:59;24.00;42.10
80236;DHT22;69543;42.138;24.742;2023-05-21T08:07:26;24.00;42.00
80236;DHT22;69543;42.138;24.742;2023-05-21T08:09:52;24.00;42.00
80236;DHT22;69543;42.138;24.742;2023-05-21T08:12:18;24.00;42.00
80236;DHT22;69543;42.138;24.742;2023-05-21T08:14:44;24.00;42.00
80236;DHT22;69543;42.138;24.742;2023-05-21T08:17:10;24.00;42.00
80236;DHT22;69543;42.138;24.742;2023-05-21T08:19:36;24.00;42.00
80236;DHT22;69543;42.138;24.742;2023-05-21T08:22:01;24.00;42.00
80236;DHT22;69543;42.138;24.742;2023-05-21T08:24:27;24.00;42.00
80236;DHT22;69543;42.138;24.742;2023-05-21T08:26:53;24.00;41.90
80236;DHT22;69543;42.138;24.742;2023-05-21T08:29:19;24.00;42.00
80236;DHT22;69543;42.138;24.742;2023-05-21T08:31:45;24.00;42.00
80236;DHT22;69543;42.138;24.742;2023-05-21T08:34:10;24.00;42.00
80236;DHT22;69543;42.138;24.742;2023-05-21T08:36:36;24.00;42.00
80236;DHT22;69543;42.138;24.742;2023-05-21T08:39:02;24.00;42.00
80236;DHT22;69543;42.138;24.742;2023-05-21T08:41:30;24.00;42.00
80236;DHT22;69543;42.138;24.742;2023-05-21T08:44:00;24.00;42.00
80236;DHT22;69543;42.138;24.742;2023-05-21T08:46:30;24.00;42.00
80236;DHT22;69543;42.138;24.742;2023-05-21T08:48:58;24.00;42.00
80236;DHT22;69543;42.138;24.742;2023-05-21T08:51:26;24.10;42.00
80236;DHT22;69543;42.138;24.742;2023-05-21T08:53:52;24.00;42.00
80236;DHT22;69543;42.138;24.742;2023-05-21T08:56:18;24.00;42.00
80236;DHT22;69543;42.138;24.742;2023-05-21T08:58:45;24.00;41.90
80236;DHT22;69543;42.138;24.742;2023-05-21T09:01:11;24.00;42.00
80236;DHT22;69543;42.138;24.742;2023-05-21T09:03:39;24.00;41.90
80236;DHT22;69543;42.138;24.742;2023-05-21T09:06:09;24.00;41.90
80236;DHT22;69543;42.138;24.742;2023-05-21T09:08:37;24.00;42.00
80236;DHT22;69543;42.138;24.742;2023-05-21T09:11:06;24.10;41.90
80236;DHT22;69543;42.138;24.742;2023-05-21T09:13:32;24.00;42.00
80236;DHT22;69543;42.138;24.742;2023-05-21T09:15:58;24.00;41.90
80236;DHT22;69543;42.138;24.742;2023-05-21T09:18:24;24.00;41.90
80236;DHT22;69543;42.138;24.742;2023-05-21T09:20:52;24.00;41.90
80236;DHT22;69543;42.138;24.742;2023-05-21T09:23:18;24.00;41.90
80236;DHT22;69543;42.138;24.742;2023-05-21T09:25:45;24.10;41.90
80236;DHT22;69543;42.138;24.742;2023-05-21T09:28:15;24.00;41.90
80236;DHT22;69543;42.138;24.742;2023-05-21T09:30:44;24.00;41.90
80236;DHT22;69543;42.138;24.742;2023-05-21T09:33:10;24.00;41.80
80236;DHT22;69543;42.138;24.742;2023-05-21T09:35:36;24.00;41.90
80236;DHT22;69543;42.138;24.742;2023-05-21T09:38:07;24.00;41.90
80236;DHT22;69543;42.138;24.742;2023-05-21T09:40:33;24.00;41.90
80236;DHT22;69543;42.138;24.742;2023-05-21T09:42:59;24.00;41.90
80236;DHT22;69543;42.138;24.742;2023-05-21T09:48:10;24.00;41.90
80236;DHT22;69543;42.138;24.742;2023-05-21T09:50:36;24.00;41.90
80236;DHT22;69543;42.138;24.742;2023-05-21T09:53:01;24.00;41.90
80236;DHT22;69543;42.138;24.742;2023-05-21T09:55:27;24.00;41.90
80236;DHT22;69543;42.138;24.742;2023-05-21T09:57:53;24.10;41.90
80236;DHT22;69543;42.138;24.742;2023-05-21T10:02:52;24.00;41.80
80236;DHT22;69543;42.138;24.742;2023-05-21T10:05:19;24.00;41.80
80236;DHT22;69543;42.138;24.742;2023-05-21T10:07:49;24.00;41.80
80236;DHT22;69543;42.138;24.742;2023-05-21T10:10:18;24.00;41.80
80236;DHT22;69543;42.138;24.742;2023-05-21T10:12:46;24.00;41.90
80236;DHT22;69543;42.138;24.742;2023-05-21T10:15:16;24.00;41.80
80236;DHT22;69543;42.138;24.742;2023-05-21T10:17:46;24.00;41.80
80236;DHT22;69543;42.138;24.742;2023-05-21T10:20:12;24.00;41.80
80236;DHT22;69543;42.138;24.742;2023-05-21T10:22:39;24.00;41.80
80236;DHT22;69543;42.138;24.742;2023-05-21T10:25:08;24.10;41.90
80236;DHT22;69543;42.138;24.742;2023-05-21T10:27:37;24.00;41.90
80236;DHT22;69543;42.138;24.742;2023-05-21T10:30:05;24.00;41.80
80236;DHT22;69543;42.138;24.742;2023-05-21T10:32:31;24.10;41.80
80236;DHT22;69543;42.138;24.742;2023-05-21T10:34:57;24.00;41.80
80236;DHT22;69543;42.138;24.742;2023-05-21T10:37:24;24.10;41.80
80236;DHT22;69543;42.138;24.742;2023-05-21T10:39:51;24.00;41.80
80236;DHT22;69543;42.138;24.742;2023-05-21T10:42:25;24.00;41.80
80236;DHT22;69543;42.138;24.742;2023-05-21T10:47:39;24.00;41.80
80236;DHT22;69543;42.138;24.742;2023-05-21T10:59:07;24.00;41.80
80236;DHT22;69543;42.138;24.742;2023-05-21T11:01:36;24.00;41.80
80236;DHT22;69543;42.138;24.742;2023-05-21T11:04:03;24.10;41.90
80236;DHT22;69543;42.138;24.742;2023-05-21T11:06:29;24.00;41.80
80236;DHT22;69543;42.138;24.742;2023-05-21T11:08:55;24.00;41.80
80236;DHT22;69543;42.138;24.742;2023-05-21T11:11:57;24.00;41.80
80236;DHT22;69543;42.138;24.742;2023-05-21T11:22:00;24.00;41.80
80236;DHT22;69543;42.138;24.742;2023-05-21T11:24:25;24.00;41.80
80236;DHT22;69543;42.138;24.742;2023-05-21T11:29:38;24.00;41.80
80236;DHT22;69543;42.138;24.742;2023-05-21T11:32:06;24.10;41.80
80236;DHT22;69543;42.138;24.742;2023-05-21T11:34:46;24.00;41.80
80236;DHT22;69543;42.138;24.742;2023-05-21T11:39:41;24.10;41.80
80236;DHT22;69543;42.138;24.742;2023-05-21T11:42:07;24.00;41.70
80236;DHT22;69543;42.138;24.742;2023-05-21T11:44:48;24.00;41.80
80236;DHT22;69543;42.138;24.742;2023-05-21T11:47:17;24.10;41.80
80236;DHT22;69543;42.138;24.742;2023-05-21T11:49:43;24.00;41.80
80236;DHT22;69543;42.138;24.742;2023-05-21T11:52:10;24.00;41.70
80236;DHT22;69543;42.138;24.742;2023-05-21T11:54:43;24.10;41.80
80236;DHT22;69543;42.138;24.742;2023-05-21T11:57:17;24.00;41.80
80236;DHT22;69543;42.138;24.742;2023-05-21T11:59:44;24.00;41.80
80236;DHT22;69543;42.138;24.742;2023-05-21T12:02:20;24.00;41.70
80236;DHT22;69543;42.138;24.742;2023-05-21T12:04:48;24.00;41.70
80236;DHT22;69543;42.138;24.742;2023-05-21T12:07:15;24.10;41.70
80236;DHT22;69543;42.138;24.742;2023-05-21T12:09:46;24.00;41.70
80236;DHT22;69543;42.138;24.742;2023-05-21T12:12:24;24.00;41.70
80236;DHT22;69543;42.138;24.742;2023-05-21T12:14:52;24.10;41.80
80236;DHT22;69543;42.138;24.742;2023-05-21T12:17:19;24.10;41.70
80236;DHT22;69543;42.138;24.742;2023-05-21T12:19:45;24.00;41.70
80236;DHT22;69543;42.138;24.742;2023-05-21T12:22:12;24.10;41.80
80236;DHT22;69543;42.138;24.742;2023-05-21T12:24:39;24.10;41.80
80236;DHT22;69543;42.138;24.742;2023-05-21T12:27:06;24.00;41.80
80236;DHT22;69543;42.138;24.742;2023-05-21T12:29:38;24.00;41.70
80236;DHT22;69543;42.138;24.742;2023-05-21T12:32:07;24.10;41.70
80236;DHT22;69543;42.138;24.742;2023-05-21T12:34:52;24.10;41.70
80236;DHT22;69543;42.138;24.742;2023-05-21T12:37:25;24.10;41.70
80236;DHT22;69543;42.138;24.742;2023-05-21T12:39:53;24.10;41.70
80236;DHT22;69543;42.138;24.742;2023-05-21T12:42:26;24.10;41.80
80236;DHT22;69543;42.138;24.742;2023-05-21T12:44:54;24.10;41.70
80236;DHT22;69543;42.138;24.742;2023-05-21T12:47:22;24.10;41.80
80236;DHT22;69543;42.138;24.742;2023-05-21T12:49:50;24.10;41.70
80236;DHT22;69543;42.138;24.742;2023-05-21T12:52:19;24.00;41.70
80236;DHT22;69543;42.138;24.742;2023-05-21T12:54:52;24.00;41.70
80236;DHT22;69543;42.138;24.742;2023-05-21T12:57:20;24.10;41.80
80236;DHT22;69543;42.138;24.742;2023-05-21T12:59:49;24.10;41.70
80236;DHT22;69543;42.138;24.742;2023-05-21T13:02:29;24.10;41.70
80236;DHT22;69543;42.138;24.742;2023-05-21T13:04:56;24.10;41.70
80236;DHT22;69543;42.138;24.742;2023-05-21T13:07:23;24.00;41.70
80236;DHT22;69543;42.138;24.742;2023-05-21T13:09:49;24.10;41.80
80236;DHT22;69543;42.138;24.742;2023-05-21T13:12:21;24.10;41.70
80236;DHT22;69543;42.138;24.742;2023-05-21T13:14:48;24.10;41.70
80236;DHT22;69543;42.138;24.742;2023-05-21T13:17:14;24.00;41.60
80236;DHT22;69543;42.138;24.742;2023-05-21T13:19:40;24.10;41.70
80236;DHT22;69543;42.138;24.742;2023-05-21T13:22:05;24.10;41.70
80236;DHT22;69543;42.138;24.742;2023-05-21T13:24:31;24.10;41.70
80236;DHT22;69543;42.138;24.742;2023-05-21T13:26:57;24.10;41.70
80236;DHT22;69543;42.138;24.742;2023-05-21T13:29:23;24.10;41.70
80236;DHT22;69543;42.138;24.742;2023-05-21T13:31:48;24.10;41.60
80236;DHT22;69543;42.138;24.742;2023-05-21T13:34:14;24.10;41.70
80236;DHT22;69543;42.138;24.742;2023-05-21T13:36:40;24.00;41.60
80236;DHT22;69543;42.138;24.742;2023-05-21T13:39:06;24.10;41.70
80236;DHT22;69543;42.138;24.742;2023-05-21T13:41:32;24.10;41.70
80236;DHT22;69543;42.138;24.742;2023-05-21T13:43:58;24.10;41.70
80236;DHT22;69543;42.138;24.742;2023-05-21T13:46:24;24.10;41.60
80236;DHT22;69543;42.138;24.742;2023-05-21T13:48:49;24.10;41.70
80236;DHT22;69543;42.138;24.742;2023-05-21T13:51:16;24.10;41.70
80236;DHT22;69543;42.138;24.742;2023-05-21T13:53:41;24.10;41.70
80236;DHT22;69543;42.138;24.742;2023-05-21T13:56:07;24.10;41.70
80236;DHT22;69543;42.138;24.742;2023-05-21T13:58:32;24.10;41.60
80236;DHT22;69543;42.138;24.742;2023-05-21T14:01:01;24.10;41.70
80236;DHT22;69543;42.138;24.742;2023-05-21T14:03:27;24.10;41.80
80236;DHT22;69543;42.138;24.742;2023-05-21T14:05:53;24.10;41.70
80236;DHT22;69543;42.138;24.742;2023-05-21T14:08:20;24.10;41.60
80236;DHT22;69543;42.138;24.742;2023-05-21T14:10:48;24.10;41.70
80236;DHT22;69543;42.138;24.742;2023-05-21T14:13:14;24.10;41.60
80236;DHT22;69543;42.138;24.742;2023-05-21T14:15:41;24.10;41.60
80236;DHT22;69543;42.138;24.742;2023-05-21T14:18:07;24.10;41.60
80236;DHT22;69543;42.138;24.742;2023-05-21T14:20:36;24.10;41.60
80236;DHT22;69543;42.138;24.742;2023-05-21T14:23:03;24.10;41.60
80236;DHT22;69543;42.138;24.742;2023-05-21T14:25:28;24.10;41.70
80236;DHT22;69543;42.138;24.742;2023-05-21T14:27:54;24.10;41.60
80236;DHT22;69543;42.138;24.742;2023-05-21T14:30:20;24.10;41.70
80236;DHT22;69543;42.138;24.742;2023-05-21T14:32:45;24.10;41.70
80236;DHT22;69543;42.138;24.742;2023-05-21T14:35:11;24.10;41.70
80236;DHT22;69543;42.138;24.742;2023-05-21T14:37:36;24.10;41.70
80236;DHT22;69543;42.138;24.742;2023-05-21T14:40:02;24.10;41.60
80236;DHT22;69543;42.138;24.742;2023-05-21T14:42:29;24.10;41.60
80236;DHT22;69543;42.138;24.742;2023-05-21T14:44:55;24.10;41.60
80236;DHT22;69543;42.138;24.742;2023-05-21T14:50:44;24.10;42.90
80236;DHT22;69543;42.138;24.742;2023-05-21T14:53:10;24.10;41.60
80236;DHT22;69543;42.138;24.742;2023-05-21T14:55:37;24.10;41.70
80236;DHT22;69543;42.138;24.742;2023-05-21T14:58:05;24.10;41.70
80236;DHT22;69543;42.138;24.742;2023-05-21T15:00:32;24.10;41.60
80236;DHT22;69543;42.138;24.742;2023-05-21T15:02:58;24.10;41.60
80236;DHT22;69543;42.138;24.742;2023-05-21T15:05:24;24.10;41.70
80236;DHT22;69543;42.138;24.742;2023-05-21T15:07:50;24.10;41.60
80236;DHT22;69543;42.138;24.742;2023-05-21T15:10:16;24.10;41.60
80236;DHT22;69543;42.138;24.742;2023-05-21T15:12:42;24.10;41.60
80236;DHT22;69543;42.138;24.742;2023-05-21T15:15:08;24.10;41.60
80236;DHT22;69543;42.138;24.742;2023-05-21T15:17:34;24.10;41.60
80236;DHT22;69543;42.138;24.742;2023-05-21T15:23:40;24.10;41.60
80236;DHT22;69543;42.138;24.742;2023-05-21T15:26:06;24.00;41.60
80236;DHT22;69543;42.138;24.742;2023-05-21T15:28:33;24.10;41.60
80236;DHT22;69543;42.138;24.742;2023-05-21T15:30:59;24.10;41.60
80236;DHT22;69543;42.138;24.742;2023-05-21T15:33:25;24.10;41.60
80236;DHT22;69543;42.138;24.742;2023-05-21T15:35:50;24.10;41.60
80236;DHT22;69543;42.138;24.742;2023-05-21T15:38:16;24.10;41.70
80236;DHT22;69543;42.138;24.742;2023-05-21T15:40:42;24.10;41.60
80236;DHT22;69543;42.138;24.742;2023-05-21T15:43:08;24.10;41.60
80236;DHT22;69543;42.138;24.742;2023-05-21T15:45:34;24.10;41.60
80236;DHT22;69543;42.138;24.742;2023-05-21T15:48:00;24.10;41.60
80236;DHT22;69543;42.138;24.742;2023-05-21T15:50:25;24.10;41.60
80236;DHT22;69543;42.138;24.742;2023-05-21T15:52:51;24.10;41.60
80236;DHT22;69543;42.138;24.742;2023-05-21T15:55:16;24.10;41.60
80236;DHT22;69543;42.138;24.742;2023-05-21T15:57:42;24.10;41.60